Terminal Aerodrome Forecast
Issued by NWS

Home | Current Version | Previous Version | Text Only | Print | Product List | Glossary On
Versions: 1 2 3 4 5 6 7 8 9 10 11 12 13 14
169
FTUS43 KJKL 132320
TAFSJS
TAF
KSJS 132320Z 1400/1424 33004KT P6SM SCT150
     FM142000 11004KT 4SM -SN OVC030
     FM142200 11004KT 2SM -SN OVC025
     FM142300 11004KT 2SM -SN OVC015=

USA.gov is the U.S. government's official web portal to all federal, state and local government web resources and services.